FW6847 Weather Reports


Display with metric or nautical units.
time (UTC)temp
F
wind
direction
speed
MPH
gust
MPH
rain 1hr
in
rain 24hr
in
rain mn
in
humidity
%
barometer
mb
20210123015142 0 0.0 0.0 0.00 1.09 0.00 994.3
20210123014119 0 0.0 0.0 0.00 1.09 0.00 994.1
20210123013141 0 0.0 0.0 0.00 1.10 0.00 994.1
20210123012120 0 0.0 0.0 0.00 1.10 0.00 993.6
20210123011141 0 0.0 0.0 0.00 1.10 0.00 993.3
20210123010129 0 0.0 0.0 0.00 1.10 0.00 992.7
20210123005054 0 0.0 0.0 0.00 1.10 0.00 992.8
20210123004132 0 0.0 0.0 0.00 1.11 0.00 992.7
20210123003055 0 0.0 0.0 0.00 1.11 0.00 993.0
20210123002117 0 0.0 0.0 0.00 1.11 0.00 993.4
20210123001055 0 0.0 0.0 0.00 1.11 0.00 993.5
20210123000126 0 0.0 0.0 0.00 1.11 0.00 993.5
20210122235056 0 0.0 0.0 0.00 1.11 0.00 993.7
20210122234118 0 0.0 0.0 0.00 1.11 0.00 993.9
20210122233053 0 0.0 0.0 0.02 1.11 0.00 994.2
20210122232117 0 0.0 0.0 0.02 1.11 0.00 994.7
20210122231054 0 0.0 0.0 0.02 1.11 0.00 994.9
20210122230120 0 0.0 0.0 0.02 1.11 0.00 994.7
20210122225019 47 248 10.0 12.0 0.02 1.11 1.11 78 1001.2
20210122223855 48 180 12.0 15.0 0.01 1.10 1.10 80 1001.5
20210122222918 49 270 10.0 12.0 0.00 1.09 1.09 86 1001.1
20210122221854 52 225 8.0 11.0 0.00 1.09 1.09 89 1001.2
20210122220918 52 180 11.0 15.0 0.00 1.09 1.09 89 1000.9
20210122215857 51 158 8.0 11.0 0.05 1.09 1.09 90 1001.1
20210122214921 51 180 11.0 15.0 0.08 1.09 1.09 90 1000.8
20210122213858 51 135 8.0 11.0 0.13 1.09 1.09 89 1001.0
20210122212918 51 135 11.0 16.0 0.17 1.09 1.09 88 1001.3
20210122211854 51 158 8.0 11.0 0.21 1.09 1.09 87 1001.5
20210122210918 51 135 8.0 9.0 0.24 1.09 1.09 87 1001.6
20210122205854 51 135 15.0 21.0 0.22 1.04 1.04 86 1001.7
20210122204917 51 180 12.0 15.0 0.22 1.00 1.00 85 1001.6
20210122203901 51 90 17.0 21.0 0.22 0.96 0.96 84 1001.6
20210122202923 51 158 23.0 25.0 0.21 0.92 0.92 83 1001.7
20210122201854 50 135 14.0 18.0 0.19 0.87 0.87 83 1001.8
20210122200919 50 135 17.0 21.0 0.19 0.85 0.85 85 1002.0
20210122195854 50 180 17.0 19.0 0.19 0.81 0.81 84 1002.6
20210122194918 50 135 15.0 20.0 0.19 0.78 0.78 83 1003.1
20210122193857 50 158 12.0 14.0 0.17 0.73 0.73 82 1002.9
20210122192919 50 135 14.0 16.0 0.14 0.71 0.71 81 1003.2
20210122191909 50 180 18.0 21.0 0.12 0.69 0.69 80 1003.4
20210122190917 50 135 16.0 23.0 0.09 0.66 0.66 80 1003.7
20210122185855 50 180 12.0 16.0 0.06 0.63 0.63 81 1004.0
20210122184920 50 135 15.0 19.0 0.02 0.59 0.59 81 1004.6
20210122183855 50 135 10.0 13.0 0.00 0.57 0.57 80 1004.2
20210122182918 50 180 6.0 8.0 0.00 0.57 0.57 80 1004.1
20210122181854 50 158 8.0 9.0 0.00 0.57 0.57 81 1004.4
20210122180918 50 158 8.0 11.0 0.00 0.57 0.57 81 1004.5
20210122175854 50 90 12.0 16.0 0.00 0.57 0.57 81 1004.5
20210122174919 51 90 11.0 14.0 0.02 0.57 0.57 80 1004.5
20210122173853 51 135 11.0 14.0 0.05 0.57 0.57 81 1004.4
20210122172919 51 90 15.0 19.0 0.06 0.57 0.57 82 1004.7
20210122171854 51 135 17.0 19.0 0.07 0.57 0.57 82 1004.9
20210122170921 51 158 15.0 17.0 0.09 0.57 0.57 83 1004.9
20210122165853 51 135 14.0 15.0 0.09 0.57 0.57 83 1004.9
20210122164917 51 135 11.0 16.0 0.09 0.54 0.54 84 1005.1
20210122163854 51 90 13.0 15.0 0.07 0.52 0.52 83 1005.0
20210122162922 51 113 15.0 18.0 0.06 0.51 0.51 82 1005.1
20210122161856 51 135 13.0 16.0 0.05 0.50 0.50 81 1005.4
20210122160924 51 158 15.0 17.0 0.06 0.47 0.47 80 1005.1
20210122155901 51 135 12.0 16.0 0.06 0.47 0.47 79 1004.9
20210122154927 52 203 19.0 23.0 0.04 0.45 0.45 78 1005.0
20210122153854 52 135 16.0 18.0 0.04 0.45 0.45 78 1005.0
20210122152919 52 135 18.0 21.0 0.04 0.45 0.45 78 1005.1
20210122151854 52 135 18.0 22.0 0.04 0.45 0.45 79 1005.3
20210122150919 52 180 18.0 23.0 0.00 0.41 0.41 79 1005.2
20210122145855 52 135 10.0 13.0 0.01 0.41 0.41 80 1005.5
20210122144917 52 158 12.0 19.0 0.01 0.41 0.41 82 1005.3
20210122143857 52 135 11.0 15.0 0.01 0.41 0.41 84 1005.6
20210122142919 52 180 13.0 15.0 0.01 0.41 0.41 85 1006.1
20210122141855 52 180 11.0 14.0 0.01 0.43 0.41 86 1006.1
20210122140923 52 135 11.0 15.0 0.01 0.43 0.41 86 1006.1
20210122135856 52 135 9.0 11.0 0.00 0.41 0.40 86 1006.4
20210122134922 52 135 9.0 12.0 0.00 0.41 0.40 85 1006.4
20210122133856 52 90 11.0 12.0 0.01 0.41 0.40 85 1006.7
20210122132923 52 180 11.0 17.0 0.01 0.41 0.40 86 1006.8
20210122131907 52 180 12.0 15.0 0.01 0.41 0.40 87 1006.8
20210122130923 52 158 11.0 13.0 0.02 0.43 0.40 89 1006.7
20210122125856 52 158 13.0 17.0 0.04 0.43 0.40 90 1006.8
20210122124921 52 180 13.0 16.0 0.04 0.45 0.40 90 1006.8
20210122123856 52 180 10.0 13.0 0.04 0.44 0.39 90 1007.2
20210122122921 52 225 8.0 13.0 0.04 0.44 0.39 91 1007.4
20210122121856 52 180 6.0 8.0 0.05 0.45 0.39 91 1007.5
20210122120922 53 158 9.0 12.0 0.04 0.45 0.38 91 1007.7
20210122115900 52 135 8.0 8.0 0.02 0.44 0.37 91 1007.8
20210122114921 52 180 8.0 11.0 0.02 0.45 0.37 91 1008.0
20210122113857 51 135 5.0 7.0 0.01 0.44 0.35 91 1008.2
20210122112930 52 90 6.0 8.0 0.01 0.44 0.35 91 1008.4
20210122111858 52 180 5.0 7.0 0.00 0.45 0.34 91 1008.5
20210122110921 51 135 7.0 8.0 0.00 0.45 0.34 91 1008.5
20210122105900 52 135 4.0 7.0 0.00 0.46 0.34 91 1008.7
20210122104920 52 135 6.0 8.0 0.01 0.46 0.34 92 1009.2
20210122103857 52 135 7.0 8.0 0.01 0.46 0.34 92 1009.2
20210122102920 52 180 7.0 8.0 0.02 0.46 0.34 92 1009.6
20210122101857 52 135 8.0 10.0 0.02 0.46 0.34 92 1009.9
20210122100920 52 135 8.0 9.0 0.02 0.46 0.34 92 1010.2
20210122095857 52 135 5.0 7.0 0.04 0.46 0.34 92 1010.3
20210122094919 52 180 10.0 13.0 0.02 0.45 0.33 92 1010.3
20210122093901 51 180 5.0 7.0 0.06 0.45 0.33 92 1010.5
20210122092920 51 158 5.0 7.0 0.05 0.44 0.32 92 1010.3
20210122091909 51 180 4.0 5.0 0.05 0.44 0.32 92 1010.1
20210122090921 51 135 6.0 8.0 0.05 0.44 0.32 92 1010.3
20210122085856 51 135 5.0 8.0 0.05 0.43 0.31 92 1010.0
20210122084920 51 135 6.0 7.0 0.05 0.43 0.31 92 1010.1
20210122083856 51 158 4.0 5.0 0.01 0.39 0.27 92 1010.1
20210122082921 51 180 5.0 6.0 0.01 0.39 0.27 92 1010.3
20210122081857 51 135 8.0 10.0 0.01 0.39 0.27 92 1010.2
20210122080919 52 135 8.0 9.0 0.01 0.39 0.27 92 1009.9
20210122075855 51 180 8.0 10.0 0.00 0.38 0.26 92 1009.9
20210122074922 51 135 7.0 8.0 0.00 0.38 0.26 92 1010.0
20210122073859 51 90 8.0 8.0 0.01 0.38 0.26 92 1010.1
20210122072920 51 135 6.0 8.0 0.02 0.38 0.26 92 1010.4
20210122071902 51 135 4.0 5.0 0.04 0.38 0.26 92 1010.2
20210122070920 51 135 4.0 6.0 0.05 0.38 0.26 92 1010.4
20210122065856 51 180 7.0 8.0 0.05 0.38 0.26 92 1010.4
20210122064924 51 180 4.0 4.0 0.05 0.38 0.26 92 1010.6
20210122063856 50 180 3.0 4.0 0.04 0.37 0.25 91 1010.3
20210122062919 50 135 4.0 5.0 0.02 0.35 0.24 91 1010.2
20210122061856 50 158 5.0 8.0 0.01 0.34 0.22 91 1010.3
20210122060920 50 135 5.0 7.0 0.00 0.33 0.21 91 1010.4
20210122055856 50 135 8.0 11.0 0.00 0.33 0.21 91 1010.3
20210122054921 50 135 8.0 10.0 0.02 0.33 0.21 91 1010.2
20210122053944 50 45 6.0 7.0 0.02 0.33 0.21 91 1010.3
20210122052923 50 225 6.0 8.0 0.02 0.33 0.21 91 1010.3
20210122051856 50 180 6.0 8.0 0.04 0.33 0.21 91 1010.6
20210122050920 51 180 8.0 11.0 0.07 0.33 0.21 91 1010.8
20210122045856 51 180 11.0 13.0 0.08 0.33 0.21 90 1010.8
20210122044922 50 135 8.0 9.0 0.07 0.31 0.19 90 1010.7
20210122043857 50 158 8.0 10.0 0.11 0.31 0.19 90 1010.8
20210122042920 49 135 10.0 12.0 0.13 0.31 0.19 89 1010.9
20210122041855 49 135 7.0 8.0 0.12 0.30 0.18 88 1010.9
20210122040923 49 135 8.0 10.0 0.08 0.26 0.14 87 1011.0
20210122035856 49 113 8.0 9.0 0.08 0.25 0.13 87 1011.2
20210122034920 49 158 4.0 5.0 0.08 0.24 0.12 87 1011.4
20210122033856 49 135 4.0 7.0 0.06 0.20 0.08 86 1011.4
20210122032920 49 135 4.0 5.0 0.04 0.18 0.06 86 1011.3
20210122031856 49 180 8.0 9.0 0.04 0.18 0.06 85 1011.6
20210122030920 49 135 9.0 11.0 0.04 0.18 0.06 85 1011.6
20210122025856 49 135 8.0 12.0 0.02 0.17 0.05 84 1011.6
20210122024925 49 135 10.0 11.0 0.01 0.15 0.04 83 1011.6
20210122023856 49 135 7.0 11.0 0.00 0.14 0.02 84 1011.8
20210122022921 49 135 10.0 13.0 0.01 0.14 0.02 84 1011.8
20210122021856 49 45 9.0 11.0 0.01 0.14 0.02 84 1011.7
20210122020919 48 135 9.0 10.0 0.01 0.14 0.02 83 1011.9